NCAR-RAP Real-Time Weather Data

Output produced by METARs form (08 May 2021  01:09 UTC)
found at http://weather.rap.ucar.edu/surface/
 
KARA 080053Z 06005KT 10SM CLR 25/11 A3008 RMK AO2 SLP184 T02500106
KARA 072353Z 04003KT 10SM CLR 28/11 A3007 RMK AO2 SLP183 T02780111 10300 20278 56010
KARA 072253Z 35007KT 10SM CLR 29/11 A3008 RMK AO2 SLP185 T02890106
KARA 072153Z 35007KT 10SM CLR 29/10 A3009 RMK AO2 SLP190 T02940100
KARA 072053Z 36009KT 10SM CLR 29/09 A3010 RMK AO2 SLP193 T02940094 58025
KARA 071953Z 00000KT 10SM CLR 29/10 A3013 RMK AO2 SLP203 T02890100
KARA 071913Z 00000KT 10SM CLR 29/09 A3015 RMK AO2 T02940094
KARA 071853Z AUTO 03004KT 10SM CLR 29/09 A3016 RMK AO2 SLP212 T02890094
KARA 071753Z VRB05KT 10SM CLR 28/12 A3018 RMK AO2 SLP219 T02830117 10283 20150 58008
KARA 071653Z 05007KT 10SM CLR 28/13 A3019 RMK AO2 SLP223 T02780133
KARA 071553Z 36005KT 10SM CLR 26/14 A3020 RMK AO2 SLP227 T02610144
KARA 071453Z 32007KT 10SM CLR 25/14 A3020 RMK AO2 SLP226 T02500144 51016
KARA 071353Z 32005KT 10SM CLR 23/15 A3020 RMK AO2 SLP226 T02280150
KARA 071253Z 33004KT 10SM CLR 18/16 A3019 RMK AO2 SLP221 T01830156
KARA 071153Z 33003KT 9SM CLR 15/14 A3016 RMK AO2 SLP211 T01500144 10178 20139 53010
KARA 071053Z 00000KT 10SM CLR 15/14 A3014 RMK AO2 SLP204 T01500139